GT-0005 weather

El Naranjo Airport
El Naranjo, Peten, Guatemala

Public forecast

Using degrees Celsius for public forecast. Weather courtesy of forecast.io.

METAR (pilot weather report)

Closest report is Mundo Maya International Airport, 57.4 nm (106.4 km) ESE. Retrieved 2019/09/22 17:00 UTC (21 minutes ago):

MGMM 221700Z 34006KT 9999 BKN016 28/24 Q1015 A2997

TAF (pilot weather forecast)

Forecast is more than 12 hours old.

Closest forecast is Mundo Maya International Airport, 57.4 nm (106.4 km) ESE. Retrieved 2019/09/20 00:00 UTC (3 days ago):

TAF MGMM 202300Z 2100/2124 09008KT 9999 SCT016 SCT080 TX35/2120Z TN22/2112Z TEMPO 2100/2105 8000 VCTSRA FEW025CB BECMG 2110/2112 SCT012 BECMG 2014/2016 09008KT SCT018 TEMPO 2120/2124 8000 VCTSRA SCT020 FEW025CB